sensor_id;sensor_type;location;lat;lon;timestamp;temperature;humidity
11666;DHT22;5889;51.350;6.708;2023-06-14T00:01:03;21.30;65.40
11666;DHT22;5889;51.350;6.708;2023-06-14T00:03:31;21.30;65.50
11666;DHT22;5889;51.350;6.708;2023-06-14T00:05:58;21.30;65.60
11666;DHT22;5889;51.350;6.708;2023-06-14T00:08:25;21.30;65.60
11666;DHT22;5889;51.350;6.708;2023-06-14T00:10:52;21.30;65.70
11666;DHT22;5889;51.350;6.708;2023-06-14T00:13:19;21.30;65.60
11666;DHT22;5889;51.350;6.708;2023-06-14T00:15:46;21.30;65.60
11666;DHT22;5889;51.350;6.708;2023-06-14T00:18:15;21.30;65.60
11666;DHT22;5889;51.350;6.708;2023-06-14T00:20:42;21.30;65.80
11666;DHT22;5889;51.350;6.708;2023-06-14T00:23:09;21.20;65.90
11666;DHT22;5889;51.350;6.708;2023-06-14T00:25:36;21.20;66.10
11666;DHT22;5889;51.350;6.708;2023-06-14T00:28:03;21.10;66.30
11666;DHT22;5889;51.350;6.708;2023-06-14T00:30:30;21.00;66.50
11666;DHT22;5889;51.350;6.708;2023-06-14T00:32:57;21.00;66.90
11666;DHT22;5889;51.350;6.708;2023-06-14T00:35:26;20.90;67.00
11666;DHT22;5889;51.350;6.708;2023-06-14T00:37:53;20.90;67.20
11666;DHT22;5889;51.350;6.708;2023-06-14T00:40:20;20.90;67.30
11666;DHT22;5889;51.350;6.708;2023-06-14T00:42:48;20.90;67.30
11666;DHT22;5889;51.350;6.708;2023-06-14T00:45:15;20.80;67.40
11666;DHT22;5889;51.350;6.708;2023-06-14T00:47:43;20.80;67.60
11666;DHT22;5889;51.350;6.708;2023-06-14T00:50:10;20.80;67.80
11666;DHT22;5889;51.350;6.708;2023-06-14T00:52:40;20.70;67.80
11666;DHT22;5889;51.350;6.708;2023-06-14T00:55:07;20.70;68.00
11666;DHT22;5889;51.350;6.708;2023-06-14T00:57:35;20.70;68.00
11666;DHT22;5889;51.350;6.708;2023-06-14T01:00:04;20.50;69.50
11666;DHT22;5889;51.350;6.708;2023-06-14T01:02:34;20.40;70.40
11666;DHT22;5889;51.350;6.708;2023-06-14T01:05:02;20.20;70.90
11666;DHT22;5889;51.350;6.708;2023-06-14T01:07:36;20.10;71.50
11666;DHT22;5889;51.350;6.708;2023-06-14T01:10:21;20.00;71.90
11666;DHT22;5889;51.350;6.708;2023-06-14T01:12:57;20.00;71.70
11666;DHT22;5889;51.350;6.708;2023-06-14T01:15:25;19.90;71.60
11666;DHT22;5889;51.350;6.708;2023-06-14T01:17:53;19.90;71.00
11666;DHT22;5889;51.350;6.708;2023-06-14T01:20:29;19.90;70.80
11666;DHT22;5889;51.350;6.708;2023-06-14T01:22:58;19.90;70.60
11666;DHT22;5889;51.350;6.708;2023-06-14T01:25:25;19.80;70.80
11666;DHT22;5889;51.350;6.708;2023-06-14T01:27:58;19.80;70.90
11666;DHT22;5889;51.350;6.708;2023-06-14T01:30:26;19.80;70.90
11666;DHT22;5889;51.350;6.708;2023-06-14T01:32:54;19.80;71.70
11666;DHT22;5889;51.350;6.708;2023-06-14T01:35:22;19.70;71.30
11666;DHT22;5889;51.350;6.708;2023-06-14T01:37:50;19.60;71.60
11666;DHT22;5889;51.350;6.708;2023-06-14T01:40:19;19.60;71.80
11666;DHT22;5889;51.350;6.708;2023-06-14T01:42:49;19.50;71.90
11666;DHT22;5889;51.350;6.708;2023-06-14T01:45:17;19.50;72.00
11666;DHT22;5889;51.350;6.708;2023-06-14T01:47:45;19.40;72.10
11666;DHT22;5889;51.350;6.708;2023-06-14T01:50:13;19.40;72.10
11666;DHT22;5889;51.350;6.708;2023-06-14T01:52:40;19.30;72.30
11666;DHT22;5889;51.350;6.708;2023-06-14T01:55:07;19.30;72.40
11666;DHT22;5889;51.350;6.708;2023-06-14T01:57:36;19.30;72.40
11666;DHT22;5889;51.350;6.708;2023-06-14T02:00:03;19.20;72.40
11666;DHT22;5889;51.350;6.708;2023-06-14T02:02:33;19.20;72.50
11666;DHT22;5889;51.350;6.708;2023-06-14T02:05:01;19.20;72.40
11666;DHT22;5889;51.350;6.708;2023-06-14T02:07:28;19.20;72.60
11666;DHT22;5889;51.350;6.708;2023-06-14T02:09:54;19.10;72.60
11666;DHT22;5889;51.350;6.708;2023-06-14T02:12:21;19.10;72.60
11666;DHT22;5889;51.350;6.708;2023-06-14T02:14:50;19.10;72.80
11666;DHT22;5889;51.350;6.708;2023-06-14T02:17:17;19.00;72.80
11666;DHT22;5889;51.350;6.708;2023-06-14T02:19:44;19.00;72.90
11666;DHT22;5889;51.350;6.708;2023-06-14T02:22:11;18.90;73.00
11666;DHT22;5889;51.350;6.708;2023-06-14T02:24:40;18.90;73.00
11666;DHT22;5889;51.350;6.708;2023-06-14T02:27:07;18.90;73.10
11666;DHT22;5889;51.350;6.708;2023-06-14T02:29:35;18.80;73.20
11666;DHT22;5889;51.350;6.708;2023-06-14T02:32:04;18.80;73.40
11666;DHT22;5889;51.350;6.708;2023-06-14T02:34:33;18.70;73.40
11666;DHT22;5889;51.350;6.708;2023-06-14T02:36:59;18.70;73.50
11666;DHT22;5889;51.350;6.708;2023-06-14T02:39:28;18.70;73.60
11666;DHT22;5889;51.350;6.708;2023-06-14T02:41:55;18.70;73.70
11666;DHT22;5889;51.350;6.708;2023-06-14T02:44:24;18.60;73.60
11666;DHT22;5889;51.350;6.708;2023-06-14T02:46:52;18.60;73.70
11666;DHT22;5889;51.350;6.708;2023-06-14T02:49:21;18.60;73.80
11666;DHT22;5889;51.350;6.708;2023-06-14T02:51:48;18.60;73.80
11666;DHT22;5889;51.350;6.708;2023-06-14T02:54:15;18.50;73.90
11666;DHT22;5889;51.350;6.708;2023-06-14T02:56:42;18.50;73.90
11666;DHT22;5889;51.350;6.708;2023-06-14T02:59:09;18.50;74.00
11666;DHT22;5889;51.350;6.708;2023-06-14T03:01:36;18.40;74.00
11666;DHT22;5889;51.350;6.708;2023-06-14T03:04:06;18.40;74.20
11666;DHT22;5889;51.350;6.708;2023-06-14T03:06:34;18.40;74.30
11666;DHT22;5889;51.350;6.708;2023-06-14T03:09:03;18.40;74.20
11666;DHT22;5889;51.350;6.708;2023-06-14T03:11:31;18.30;74.20
11666;DHT22;5889;51.350;6.708;2023-06-14T03:13:58;18.30;74.40
11666;DHT22;5889;51.350;6.708;2023-06-14T03:16:25;18.30;74.40
11666;DHT22;5889;51.350;6.708;2023-06-14T03:18:55;18.30;74.40
11666;DHT22;5889;51.350;6.708;2023-06-14T03:21:22;18.30;74.50
11666;DHT22;5889;51.350;6.708;2023-06-14T03:23:52;18.30;74.50
11666;DHT22;5889;51.350;6.708;2023-06-14T03:26:20;18.30;74.70
11666;DHT22;5889;51.350;6.708;2023-06-14T03:28:48;18.20;74.70
11666;DHT22;5889;51.350;6.708;2023-06-14T03:31:18;18.20;74.80
11666;DHT22;5889;51.350;6.708;2023-06-14T03:33:45;18.20;74.70
11666;DHT22;5889;51.350;6.708;2023-06-14T03:36:12;18.20;74.80
11666;DHT22;5889;51.350;6.708;2023-06-14T03:38:39;18.20;74.70
11666;DHT22;5889;51.350;6.708;2023-06-14T03:41:10;18.20;74.70
11666;DHT22;5889;51.350;6.708;2023-06-14T03:43:37;18.20;74.80
11666;DHT22;5889;51.350;6.708;2023-06-14T03:46:04;18.20;74.70
11666;DHT22;5889;51.350;6.708;2023-06-14T03:48:34;18.20;74.80
11666;DHT22;5889;51.350;6.708;2023-06-14T03:51:01;18.20;74.80
11666;DHT22;5889;51.350;6.708;2023-06-14T03:53:28;18.20;74.80
11666;DHT22;5889;51.350;6.708;2023-06-14T03:55:55;18.30;74.80
11666;DHT22;5889;51.350;6.708;2023-06-14T03:58:24;18.30;74.70
11666;DHT22;5889;51.350;6.708;2023-06-14T04:00:51;18.40;74.60
11666;DHT22;5889;51.350;6.708;2023-06-14T04:03:18;18.40;74.50
11666;DHT22;5889;51.350;6.708;2023-06-14T04:05:45;18.50;74.50
11666;DHT22;5889;51.350;6.708;2023-06-14T04:08:15;18.50;74.40
11666;DHT22;5889;51.350;6.708;2023-06-14T04:10:44;18.60;74.20
11666;DHT22;5889;51.350;6.708;2023-06-14T04:13:11;18.70;74.00
11666;DHT22;5889;51.350;6.708;2023-06-14T04:15:40;18.80;73.70
11666;DHT22;5889;51.350;6.708;2023-06-14T04:18:09;18.90;73.10
11666;DHT22;5889;51.350;6.708;2023-06-14T04:20:36;19.00;72.80
11666;DHT22;5889;51.350;6.708;2023-06-14T04:23:11;19.10;72.80
11666;DHT22;5889;51.350;6.708;2023-06-14T04:25:38;19.10;73.00
11666;DHT22;5889;51.350;6.708;2023-06-14T04:28:06;19.10;72.80
11666;DHT22;5889;51.350;6.708;2023-06-14T04:30:34;19.30;72.70
11666;DHT22;5889;51.350;6.708;2023-06-14T04:33:05;19.40;72.40
11666;DHT22;5889;51.350;6.708;2023-06-14T04:35:32;19.40;72.40
11666;DHT22;5889;51.350;6.708;2023-06-14T04:38:01;19.50;72.20
11666;DHT22;5889;51.350;6.708;2023-06-14T04:40:30;19.60;72.00
11666;DHT22;5889;51.350;6.708;2023-06-14T04:42:58;19.60;71.80
11666;DHT22;5889;51.350;6.708;2023-06-14T04:45:26;19.60;71.40
11666;DHT22;5889;51.350;6.708;2023-06-14T04:47:58;19.60;71.40
11666;DHT22;5889;51.350;6.708;2023-06-14T04:50:27;19.70;71.50
11666;DHT22;5889;51.350;6.708;2023-06-14T04:52:55;19.70;71.30
11666;DHT22;5889;51.350;6.708;2023-06-14T04:55:22;19.80;71.20
11666;DHT22;5889;51.350;6.708;2023-06-14T04:57:50;19.80;71.30
11666;DHT22;5889;51.350;6.708;2023-06-14T05:00:19;19.90;71.00
11666;DHT22;5889;51.350;6.708;2023-06-14T05:02:47;20.00;71.00
11666;DHT22;5889;51.350;6.708;2023-06-14T05:05:16;20.00;70.80
11666;DHT22;5889;51.350;6.708;2023-06-14T05:07:46;20.00;70.80
11666;DHT22;5889;51.350;6.708;2023-06-14T05:10:13;20.00;70.50
11666;DHT22;5889;51.350;6.708;2023-06-14T05:12:40;20.20;70.50
11666;DHT22;5889;51.350;6.708;2023-06-14T05:15:09;20.20;70.20
11666;DHT22;5889;51.350;6.708;2023-06-14T05:17:36;20.30;70.10
11666;DHT22;5889;51.350;6.708;2023-06-14T05:20:07;20.30;70.10
11666;DHT22;5889;51.350;6.708;2023-06-14T05:22:35;20.40;70.10
11666;DHT22;5889;51.350;6.708;2023-06-14T05:25:04;20.60;69.80
11666;DHT22;5889;51.350;6.708;2023-06-14T05:27:31;20.70;69.60
11666;DHT22;5889;51.350;6.708;2023-06-14T05:30:01;20.70;69.40
11666;DHT22;5889;51.350;6.708;2023-06-14T05:32:29;20.70;69.40
11666;DHT22;5889;51.350;6.708;2023-06-14T05:34:56;20.70;69.40
11666;DHT22;5889;51.350;6.708;2023-06-14T05:37:23;20.70;69.30
11666;DHT22;5889;51.350;6.708;2023-06-14T05:39:50;20.70;69.50
11666;DHT22;5889;51.350;6.708;2023-06-14T05:42:19;20.70;69.50
11666;DHT22;5889;51.350;6.708;2023-06-14T05:44:46;20.80;69.50
11666;DHT22;5889;51.350;6.708;2023-06-14T05:47:13;20.90;69.00
11666;DHT22;5889;51.350;6.708;2023-06-14T05:49:39;20.90;68.90
11666;DHT22;5889;51.350;6.708;2023-06-14T05:52:08;20.90;68.80
11666;DHT22;5889;51.350;6.708;2023-06-14T05:54:35;21.10;68.70
11666;DHT22;5889;51.350;6.708;2023-06-14T05:57:02;21.20;68.50
11666;DHT22;5889;51.350;6.708;2023-06-14T05:59:33;21.20;68.00
11666;DHT22;5889;51.350;6.708;2023-06-14T06:02:00;21.30;67.90
11666;DHT22;5889;51.350;6.708;2023-06-14T06:04:27;21.20;67.90
11666;DHT22;5889;51.350;6.708;2023-06-14T06:06:54;21.20;68.10
11666;DHT22;5889;51.350;6.708;2023-06-14T06:09:21;21.30;68.10
11666;DHT22;5889;51.350;6.708;2023-06-14T06:11:48;21.40;67.80
11666;DHT22;5889;51.350;6.708;2023-06-14T06:14:17;21.60;67.60
11666;DHT22;5889;51.350;6.708;2023-06-14T06:16:54;21.70;67.20
11666;DHT22;5889;51.350;6.708;2023-06-14T06:19:32;21.80;66.90
11666;DHT22;5889;51.350;6.708;2023-06-14T06:21:59;21.90;67.00
11666;DHT22;5889;51.350;6.708;2023-06-14T06:24:32;22.10;66.60
11666;DHT22;5889;51.350;6.708;2023-06-14T06:26:59;22.10;66.50
11666;DHT22;5889;51.350;6.708;2023-06-14T06:29:29;22.20;66.70
11666;DHT22;5889;51.350;6.708;2023-06-14T06:32:00;22.30;66.80
11666;DHT22;5889;51.350;6.708;2023-06-14T06:34:27;22.60;66.50
11666;DHT22;5889;51.350;6.708;2023-06-14T06:36:54;22.70;65.70
11666;DHT22;5889;51.350;6.708;2023-06-14T06:39:21;22.80;65.80
11666;DHT22;5889;51.350;6.708;2023-06-14T06:41:48;22.90;65.40
11666;DHT22;5889;51.350;6.708;2023-06-14T06:44:15;22.90;64.70
11666;DHT22;5889;51.350;6.708;2023-06-14T06:46:43;22.90;64.50
11666;DHT22;5889;51.350;6.708;2023-06-14T06:49:12;22.90;64.50
11666;DHT22;5889;51.350;6.708;2023-06-14T06:51:41;22.90;64.30
11666;DHT22;5889;51.350;6.708;2023-06-14T06:54:08;22.90;64.30
11666;DHT22;5889;51.350;6.708;2023-06-14T06:56:36;22.90;64.10
11666;DHT22;5889;51.350;6.708;2023-06-14T06:59:03;23.00;64.00
11666;DHT22;5889;51.350;6.708;2023-06-14T07:01:31;23.10;64.00
11666;DHT22;5889;51.350;6.708;2023-06-14T07:03:59;23.20;63.90
11666;DHT22;5889;51.350;6.708;2023-06-14T07:06:28;23.40;63.60
11666;DHT22;5889;51.350;6.708;2023-06-14T07:08:55;23.60;63.30
11666;DHT22;5889;51.350;6.708;2023-06-14T07:11:26;23.80;62.90
11666;DHT22;5889;51.350;6.708;2023-06-14T07:13:53;23.90;62.60
11666;DHT22;5889;51.350;6.708;2023-06-14T07:16:20;24.00;62.60
11666;DHT22;5889;51.350;6.708;2023-06-14T07:18:47;24.10;61.50
11666;DHT22;5889;51.350;6.708;2023-06-14T07:21:14;24.20;61.20
11666;DHT22;5889;51.350;6.708;2023-06-14T07:23:43;24.20;60.90
11666;DHT22;5889;51.350;6.708;2023-06-14T07:26:09;24.20;61.30
11666;DHT22;5889;51.350;6.708;2023-06-14T07:28:36;24.30;60.90
11666;DHT22;5889;51.350;6.708;2023-06-14T07:31:09;24.40;61.00
11666;DHT22;5889;51.350;6.708;2023-06-14T07:33:36;24.50;60.60
11666;DHT22;5889;51.350;6.708;2023-06-14T07:36:03;24.70;60.70
11666;DHT22;5889;51.350;6.708;2023-06-14T07:38:30;24.80;59.80
11666;DHT22;5889;51.350;6.708;2023-06-14T07:40:59;24.80;60.00
11666;DHT22;5889;51.350;6.708;2023-06-14T07:43:26;24.80;59.10
11666;DHT22;5889;51.350;6.708;2023-06-14T07:45:53;24.80;59.40
11666;DHT22;5889;51.350;6.708;2023-06-14T07:48:20;24.60;59.60
11666;DHT22;5889;51.350;6.708;2023-06-14T07:50:48;24.60;59.70
11666;DHT22;5889;51.350;6.708;2023-06-14T07:53:15;24.60;59.00
11666;DHT22;5889;51.350;6.708;2023-06-14T07:55:41;24.50;58.60
11666;DHT22;5889;51.350;6.708;2023-06-14T07:58:10;24.60;59.20
11666;DHT22;5889;51.350;6.708;2023-06-14T08:00:37;24.80;59.20
11666;DHT22;5889;51.350;6.708;2023-06-14T08:03:04;25.00;59.20
11666;DHT22;5889;51.350;6.708;2023-06-14T08:05:31;25.10;58.20
11666;DHT22;5889;51.350;6.708;2023-06-14T08:07:58;25.10;58.40
11666;DHT22;5889;51.350;6.708;2023-06-14T08:10:26;25.10;58.80
11666;DHT22;5889;51.350;6.708;2023-06-14T08:12:53;25.20;59.20
11666;DHT22;5889;51.350;6.708;2023-06-14T08:15:22;25.40;58.70
11666;DHT22;5889;51.350;6.708;2023-06-14T08:17:49;25.60;58.30
11666;DHT22;5889;51.350;6.708;2023-06-14T08:20:16;25.70;58.00
11666;DHT22;5889;51.350;6.708;2023-06-14T08:22:43;25.60;57.80
11666;DHT22;5889;51.350;6.708;2023-06-14T08:25:12;25.40;57.40
11666;DHT22;5889;51.350;6.708;2023-06-14T08:27:39;25.30;57.70
11666;DHT22;5889;51.350;6.708;2023-06-14T08:30:10;25.50;57.60
11666;DHT22;5889;51.350;6.708;2023-06-14T08:32:39;25.60;57.90
11666;DHT22;5889;51.350;6.708;2023-06-14T08:35:06;25.90;58.00
11666;DHT22;5889;51.350;6.708;2023-06-14T08:37:38;26.10;57.90
11666;DHT22;5889;51.350;6.708;2023-06-14T08:40:08;26.00;57.50
11666;DHT22;5889;51.350;6.708;2023-06-14T08:42:40;25.90;58.20
11666;DHT22;5889;51.350;6.708;2023-06-14T08:45:08;26.20;58.20
11666;DHT22;5889;51.350;6.708;2023-06-14T08:47:36;26.10;57.10
11666;DHT22;5889;51.350;6.708;2023-06-14T08:50:06;25.70;57.10
11666;DHT22;5889;51.350;6.708;2023-06-14T08:52:38;25.40;58.00
11666;DHT22;5889;51.350;6.708;2023-06-14T08:55:06;25.30;59.20
11666;DHT22;5889;51.350;6.708;2023-06-14T08:57:36;25.80;58.70
11666;DHT22;5889;51.350;6.708;2023-06-14T09:00:05;26.00;58.60
11666;DHT22;5889;51.350;6.708;2023-06-14T09:02:38;26.20;58.20
11666;DHT22;5889;51.350;6.708;2023-06-14T09:05:10;26.00;57.70
11666;DHT22;5889;51.350;6.708;2023-06-14T09:07:39;25.90;56.80
11666;DHT22;5889;51.350;6.708;2023-06-14T09:10:09;25.90;57.40
11666;DHT22;5889;51.350;6.708;2023-06-14T09:12:36;26.10;57.00
11666;DHT22;5889;51.350;6.708;2023-06-14T09:15:04;26.10;56.80
11666;DHT22;5889;51.350;6.708;2023-06-14T09:17:34;25.90;57.40
11666;DHT22;5889;51.350;6.708;2023-06-14T09:20:02;25.80;57.70
11666;DHT22;5889;51.350;6.708;2023-06-14T09:22:32;25.80;57.80
11666;DHT22;5889;51.350;6.708;2023-06-14T09:24:59;25.90;58.50
11666;DHT22;5889;51.350;6.708;2023-06-14T09:27:27;26.20;58.00
11666;DHT22;5889;51.350;6.708;2023-06-14T09:29:54;25.80;57.70
11666;DHT22;5889;51.350;6.708;2023-06-14T09:32:24;25.50;57.90
11666;DHT22;5889;51.350;6.708;2023-06-14T09:34:51;25.40;58.40
11666;DHT22;5889;51.350;6.708;2023-06-14T09:37:28;25.30;58.60
11666;DHT22;5889;51.350;6.708;2023-06-14T09:39:57;25.20;59.70
11666;DHT22;5889;51.350;6.708;2023-06-14T09:42:25;25.60;59.70
11666;DHT22;5889;51.350;6.708;2023-06-14T09:44:54;26.00;58.50
11666;DHT22;5889;51.350;6.708;2023-06-14T09:47:22;26.20;58.10
11666;DHT22;5889;51.350;6.708;2023-06-14T09:49:49;26.30;58.50
11666;DHT22;5889;51.350;6.708;2023-06-14T09:52:19;26.40;58.10
11666;DHT22;5889;51.350;6.708;2023-06-14T09:54:47;26.70;57.60
11666;DHT22;5889;51.350;6.708;2023-06-14T09:57:16;26.90;57.10
11666;DHT22;5889;51.350;6.708;2023-06-14T09:59:45;27.00;56.70
11666;DHT22;5889;51.350;6.708;2023-06-14T10:02:21;27.20;56.90
11666;DHT22;5889;51.350;6.708;2023-06-14T10:04:56;27.00;56.40
11666;DHT22;5889;51.350;6.708;2023-06-14T10:07:26;26.60;56.50
11666;DHT22;5889;51.350;6.708;2023-06-14T10:09:57;26.40;56.60
11666;DHT22;5889;51.350;6.708;2023-06-14T10:12:26;26.20;55.90
11666;DHT22;5889;51.350;6.708;2023-06-14T10:14:54;26.00;56.40
11666;DHT22;5889;51.350;6.708;2023-06-14T10:17:31;26.00;56.60
11666;DHT22;5889;51.350;6.708;2023-06-14T10:20:10;26.00;56.40
11666;DHT22;5889;51.350;6.708;2023-06-14T10:22:44;26.20;56.20
11666;DHT22;5889;51.350;6.708;2023-06-14T10:25:26;26.50;56.20
11666;DHT22;5889;51.350;6.708;2023-06-14T10:28:02;26.80;55.90
11666;DHT22;5889;51.350;6.708;2023-06-14T10:30:29;26.50;56.00
11666;DHT22;5889;51.350;6.708;2023-06-14T10:33:06;26.50;56.10
11666;DHT22;5889;51.350;6.708;2023-06-14T10:35:34;26.50;55.50
11666;DHT22;5889;51.350;6.708;2023-06-14T10:38:08;26.40;55.80
11666;DHT22;5889;51.350;6.708;2023-06-14T10:40:36;26.50;56.00
11666;DHT22;5889;51.350;6.708;2023-06-14T10:43:23;26.70;56.40
11666;DHT22;5889;51.350;6.708;2023-06-14T10:46:15;26.90;55.80
11666;DHT22;5889;51.350;6.708;2023-06-14T10:48:43;27.00;55.80
11666;DHT22;5889;51.350;6.708;2023-06-14T10:51:17;27.10;55.00
11666;DHT22;5889;51.350;6.708;2023-06-14T10:53:48;27.00;55.10
11666;DHT22;5889;51.350;6.708;2023-06-14T10:56:29;27.20;55.10
11666;DHT22;5889;51.350;6.708;2023-06-14T10:58:58;27.00;54.30
11666;DHT22;5889;51.350;6.708;2023-06-14T11:01:36;26.90;55.40
11666;DHT22;5889;51.350;6.708;2023-06-14T11:04:08;26.80;54.60
11666;DHT22;5889;51.350;6.708;2023-06-14T11:06:46;27.00;55.10
11666;DHT22;5889;51.350;6.708;2023-06-14T11:09:51;27.30;54.80
11666;DHT22;5889;51.350;6.708;2023-06-14T11:12:27;27.50;54.50
11666;DHT22;5889;51.350;6.708;2023-06-14T11:14:56;27.40;54.90
11666;DHT22;5889;51.350;6.708;2023-06-14T11:17:23;27.00;54.10
11666;DHT22;5889;51.350;6.708;2023-06-14T11:19:50;26.90;55.60
11666;DHT22;5889;51.350;6.708;2023-06-14T11:22:39;27.20;55.30
11666;DHT22;5889;51.350;6.708;2023-06-14T11:25:08;27.70;54.60
11666;DHT22;5889;51.350;6.708;2023-06-14T11:27:36;27.90;53.90
11666;DHT22;5889;51.350;6.708;2023-06-14T11:30:07;28.00;54.20
11666;DHT22;5889;51.350;6.708;2023-06-14T11:32:35;28.20;55.00
11666;DHT22;5889;51.350;6.708;2023-06-14T11:35:02;28.40;54.20
11666;DHT22;5889;51.350;6.708;2023-06-14T11:37:30;28.50;54.40
11666;DHT22;5889;51.350;6.708;2023-06-14T11:39:58;28.20;54.30
11666;DHT22;5889;51.350;6.708;2023-06-14T11:42:27;28.20;55.00
11666;DHT22;5889;51.350;6.708;2023-06-14T11:44:54;28.20;54.40
11666;DHT22;5889;51.350;6.708;2023-06-14T11:47:22;27.90;54.70
11666;DHT22;5889;51.350;6.708;2023-06-14T11:49:49;27.70;55.40
11666;DHT22;5889;51.350;6.708;2023-06-14T11:52:17;27.80;54.70
11666;DHT22;5889;51.350;6.708;2023-06-14T11:54:47;27.60;55.50
11666;DHT22;5889;51.350;6.708;2023-06-14T11:57:14;27.40;56.00
11666;DHT22;5889;51.350;6.708;2023-06-14T11:59:44;27.00;56.30
11666;DHT22;5889;51.350;6.708;2023-06-14T12:02:14;26.80;57.00
11666;DHT22;5889;51.350;6.708;2023-06-14T12:04:42;27.20;57.30
11666;DHT22;5889;51.350;6.708;2023-06-14T12:07:10;27.60;55.90
11666;DHT22;5889;51.350;6.708;2023-06-14T12:09:40;27.60;54.80
11666;DHT22;5889;51.350;6.708;2023-06-14T12:12:09;27.50;55.80
11666;DHT22;5889;51.350;6.708;2023-06-14T12:14:36;27.60;55.50
11666;DHT22;5889;51.350;6.708;2023-06-14T12:17:07;27.60;55.70
11666;DHT22;5889;51.350;6.708;2023-06-14T12:19:43;27.70;55.70
11666;DHT22;5889;51.350;6.708;2023-06-14T12:22:11;27.70;55.90
11666;DHT22;5889;51.350;6.708;2023-06-14T12:24:38;27.50;56.30
11666;DHT22;5889;51.350;6.708;2023-06-14T12:27:06;27.40;56.60
11666;DHT22;5889;51.350;6.708;2023-06-14T12:29:33;27.60;56.20
11666;DHT22;5889;51.350;6.708;2023-06-14T12:32:00;27.70;56.00
11666;DHT22;5889;51.350;6.708;2023-06-14T12:34:27;27.30;56.50
11666;DHT22;5889;51.350;6.708;2023-06-14T12:36:56;27.10;56.90
11666;DHT22;5889;51.350;6.708;2023-06-14T12:39:23;27.20;57.50
11666;DHT22;5889;51.350;6.708;2023-06-14T12:41:51;27.50;57.40
11666;DHT22;5889;51.350;6.708;2023-06-14T12:44:18;27.70;57.20
11666;DHT22;5889;51.350;6.708;2023-06-14T12:46:45;27.50;56.40
11666;DHT22;5889;51.350;6.708;2023-06-14T12:49:12;27.50;57.00
11666;DHT22;5889;51.350;6.708;2023-06-14T12:51:40;27.80;56.80
11666;DHT22;5889;51.350;6.708;2023-06-14T12:54:08;28.00;56.40
11666;DHT22;5889;51.350;6.708;2023-06-14T12:56:35;27.70;56.40
11666;DHT22;5889;51.350;6.708;2023-06-14T12:59:02;27.70;56.70
11666;DHT22;5889;51.350;6.708;2023-06-14T13:01:30;28.00;56.80
11666;DHT22;5889;51.350;6.708;2023-06-14T13:03:57;28.20;56.30
11666;DHT22;5889;51.350;6.708;2023-06-14T13:06:24;28.10;55.90
11666;DHT22;5889;51.350;6.708;2023-06-14T13:08:51;28.00;56.00
11666;DHT22;5889;51.350;6.708;2023-06-14T13:11:21;27.80;56.10
11666;DHT22;5889;51.350;6.708;2023-06-14T13:13:48;27.80;56.70
11666;DHT22;5889;51.350;6.708;2023-06-14T13:16:15;27.90;56.80
11666;DHT22;5889;51.350;6.708;2023-06-14T13:18:42;28.10;55.80
11666;DHT22;5889;51.350;6.708;2023-06-14T13:21:09;28.50;55.80
11666;DHT22;5889;51.350;6.708;2023-06-14T13:23:36;28.70;55.00
11666;DHT22;5889;51.350;6.708;2023-06-14T13:26:03;28.90;54.70
11666;DHT22;5889;51.350;6.708;2023-06-14T13:28:31;29.10;54.80
11666;DHT22;5889;51.350;6.708;2023-06-14T13:31:00;28.80;55.20
11666;DHT22;5889;51.350;6.708;2023-06-14T13:33:27;28.90;55.30
11666;DHT22;5889;51.350;6.708;2023-06-14T13:35:54;28.90;55.00
11666;DHT22;5889;51.350;6.708;2023-06-14T13:38:21;28.70;54.70
11666;DHT22;5889;51.350;6.708;2023-06-14T13:40:48;28.60;55.50
11666;DHT22;5889;51.350;6.708;2023-06-14T13:43:17;28.80;55.50
11666;DHT22;5889;51.350;6.708;2023-06-14T13:45:45;28.70;54.90
11666;DHT22;5889;51.350;6.708;2023-06-14T13:48:13;28.60;55.50
11666;DHT22;5889;51.350;6.708;2023-06-14T13:50:40;28.50;55.70
11666;DHT22;5889;51.350;6.708;2023-06-14T13:53:07;28.70;55.60
11666;DHT22;5889;51.350;6.708;2023-06-14T13:55:34;28.60;55.40
11666;DHT22;5889;51.350;6.708;2023-06-14T13:58:01;28.60;55.90
11666;DHT22;5889;51.350;6.708;2023-06-14T14:00:28;28.70;55.80
11666;DHT22;5889;51.350;6.708;2023-06-14T14:02:56;28.90;55.70
11666;DHT22;5889;51.350;6.708;2023-06-14T14:05:25;29.10;55.30
11666;DHT22;5889;51.350;6.708;2023-06-14T14:07:55;29.40;55.20
11666;DHT22;5889;51.350;6.708;2023-06-14T14:10:22;29.70;54.50
11666;DHT22;5889;51.350;6.708;2023-06-14T14:12:50;29.10;54.90
11666;DHT22;5889;51.350;6.708;2023-06-14T14:15:18;28.80;55.40
11666;DHT22;5889;51.350;6.708;2023-06-14T14:17:45;28.70;55.90
11666;DHT22;5889;51.350;6.708;2023-06-14T14:20:14;28.90;55.00
11666;DHT22;5889;51.350;6.708;2023-06-14T14:22:42;28.80;55.40
11666;DHT22;5889;51.350;6.708;2023-06-14T14:25:09;28.80;56.00
11666;DHT22;5889;51.350;6.708;2023-06-14T14:27:37;29.10;55.40
11666;DHT22;5889;51.350;6.708;2023-06-14T14:30:06;29.40;54.50
11666;DHT22;5889;51.350;6.708;2023-06-14T14:32:33;29.60;54.70
11666;DHT22;5889;51.350;6.708;2023-06-14T14:35:00;29.90;54.60
11666;DHT22;5889;51.350;6.708;2023-06-14T14:37:28;30.00;54.50
11666;DHT22;5889;51.350;6.708;2023-06-14T14:39:55;30.20;54.20
11666;DHT22;5889;51.350;6.708;2023-06-14T14:42:29;30.40;53.70
11666;DHT22;5889;51.350;6.708;2023-06-14T14:44:56;30.30;54.00
11666;DHT22;5889;51.350;6.708;2023-06-14T14:47:23;30.30;53.30
11666;DHT22;5889;51.350;6.708;2023-06-14T14:49:50;30.00;53.00
11666;DHT22;5889;51.350;6.708;2023-06-14T14:52:17;29.80;53.40
11666;DHT22;5889;51.350;6.708;2023-06-14T14:54:46;29.40;54.20
11666;DHT22;5889;51.350;6.708;2023-06-14T14:57:13;29.30;54.50
11666;DHT22;5889;51.350;6.708;2023-06-14T14:59:40;29.40;54.10
11666;DHT22;5889;51.350;6.708;2023-06-14T15:02:07;29.40;54.10
11666;DHT22;5889;51.350;6.708;2023-06-14T15:04:34;29.40;54.70
11666;DHT22;5889;51.350;6.708;2023-06-14T15:07:01;29.50;54.30
11666;DHT22;5889;51.350;6.708;2023-06-14T15:09:28;29.50;54.10
11666;DHT22;5889;51.350;6.708;2023-06-14T15:11:56;29.40;53.70
11666;DHT22;5889;51.350;6.708;2023-06-14T15:14:23;29.10;54.00
11666;DHT22;5889;51.350;6.708;2023-06-14T15:16:50;29.00;54.40
11666;DHT22;5889;51.350;6.708;2023-06-14T15:19:18;29.00;54.60
11666;DHT22;5889;51.350;6.708;2023-06-14T15:21:45;29.10;54.70
11666;DHT22;5889;51.350;6.708;2023-06-14T15:24:11;29.20;54.40
11666;DHT22;5889;51.350;6.708;2023-06-14T15:26:38;29.30;54.70
11666;DHT22;5889;51.350;6.708;2023-06-14T15:29:07;29.60;54.40
11666;DHT22;5889;51.350;6.708;2023-06-14T15:31:34;29.70;54.10
11666;DHT22;5889;51.350;6.708;2023-06-14T15:34:01;29.50;54.10
11666;DHT22;5889;51.350;6.708;2023-06-14T15:36:28;29.40;54.60
11666;DHT22;5889;51.350;6.708;2023-06-14T15:38:55;29.70;54.00
11666;DHT22;5889;51.350;6.708;2023-06-14T15:41:22;29.60;54.40
11666;DHT22;5889;51.350;6.708;2023-06-14T15:43:49;29.70;54.10
11666;DHT22;5889;51.350;6.708;2023-06-14T15:46:21;29.60;53.50
11666;DHT22;5889;51.350;6.708;2023-06-14T15:48:48;29.40;54.40
11666;DHT22;5889;51.350;6.708;2023-06-14T15:51:15;29.30;53.80
11666;DHT22;5889;51.350;6.708;2023-06-14T15:53:43;29.60;54.00